sensor_id;sensor_type;location;lat;lon;timestamp;P1;durP1;ratioP1;P2;durP2;ratioP2
44169;SDS011;29836;52.286;9.576;2023-07-16T00:01:56;2.55;;;1.50;;
44169;SDS011;29836;52.286;9.576;2023-07-16T00:04:22;2.38;;;1.45;;
44169;SDS011;29836;52.286;9.576;2023-07-16T00:06:47;3.13;;;1.75;;
44169;SDS011;29836;52.286;9.576;2023-07-16T00:09:13;2.80;;;1.58;;
44169;SDS011;29836;52.286;9.576;2023-07-16T00:11:39;3.65;;;1.60;;
44169;SDS011;29836;52.286;9.576;2023-07-16T00:14:04;2.80;;;1.70;;
44169;SDS011;29836;52.286;9.576;2023-07-16T00:16:30;2.28;;;1.23;;
44169;SDS011;29836;52.286;9.576;2023-07-16T00:18:56;2.72;;;1.50;;
44169;SDS011;29836;52.286;9.576;2023-07-16T00:21:22;2.78;;;1.60;;
44169;SDS011;29836;52.286;9.576;2023-07-16T00:23:47;2.88;;;1.30;;
44169;SDS011;29836;52.286;9.576;2023-07-16T00:26:13;3.00;;;1.77;;
44169;SDS011;29836;52.286;9.576;2023-07-16T00:28:39;3.47;;;1.67;;
44169;SDS011;29836;52.286;9.576;2023-07-16T00:31:04;3.35;;;1.50;;
44169;SDS011;29836;52.286;9.576;2023-07-16T00:33:30;3.75;;;1.80;;
44169;SDS011;29836;52.286;9.576;2023-07-16T00:35:55;4.68;;;1.40;;
44169;SDS011;29836;52.286;9.576;2023-07-16T00:38:21;3.90;;;1.45;;
44169;SDS011;29836;52.286;9.576;2023-07-16T00:40:47;4.38;;;2.08;;
44169;SDS011;29836;52.286;9.576;2023-07-16T00:43:13;4.47;;;2.28;;
44169;SDS011;29836;52.286;9.576;2023-07-16T00:45:39;4.00;;;2.50;;
44169;SDS011;29836;52.286;9.576;2023-07-16T00:48:06;2.95;;;1.63;;
44169;SDS011;29836;52.286;9.576;2023-07-16T00:50:33;3.33;;;1.60;;
44169;SDS011;29836;52.286;9.576;2023-07-16T00:53:04;3.15;;;1.58;;
44169;SDS011;29836;52.286;9.576;2023-07-16T00:55:31;3.72;;;1.80;;
44169;SDS011;29836;52.286;9.576;2023-07-16T00:58:00;3.83;;;1.80;;
44169;SDS011;29836;52.286;9.576;2023-07-16T01:00:33;3.13;;;1.70;;
44169;SDS011;29836;52.286;9.576;2023-07-16T01:03:04;4.50;;;1.98;;
44169;SDS011;29836;52.286;9.576;2023-07-16T01:05:36;2.80;;;1.60;;
44169;SDS011;29836;52.286;9.576;2023-07-16T01:08:08;2.30;;;1.50;;
44169;SDS011;29836;52.286;9.576;2023-07-16T01:10:35;2.95;;;1.60;;
44169;SDS011;29836;52.286;9.576;2023-07-16T01:13:03;3.63;;;1.70;;
44169;SDS011;29836;52.286;9.576;2023-07-16T01:15:29;2.90;;;1.58;;
44169;SDS011;29836;52.286;9.576;2023-07-16T01:17:54;2.83;;;1.70;;
44169;SDS011;29836;52.286;9.576;2023-07-16T01:20:20;2.50;;;1.20;;
44169;SDS011;29836;52.286;9.576;2023-07-16T01:22:56;3.83;;;1.77;;
44169;SDS011;29836;52.286;9.576;2023-07-16T01:31:17;2.97;;;1.50;;
44169;SDS011;29836;52.286;9.576;2023-07-16T01:33:44;4.85;;;1.42;;
44169;SDS011;29836;52.286;9.576;2023-07-16T01:36:11;3.90;;;1.58;;
44169;SDS011;29836;52.286;9.576;2023-07-16T01:38:36;3.38;;;1.50;;
44169;SDS011;29836;52.286;9.576;2023-07-16T01:41:02;2.30;;;1.50;;
44169;SDS011;29836;52.286;9.576;2023-07-16T01:43:28;5.32;;;1.55;;
44169;SDS011;29836;52.286;9.576;2023-07-16T01:45:53;3.30;;;1.23;;
44169;SDS011;29836;52.286;9.576;2023-07-16T01:50:55;3.22;;;1.63;;
44169;SDS011;29836;52.286;9.576;2023-07-16T01:53:21;3.63;;;1.45;;
44169;SDS011;29836;52.286;9.576;2023-07-16T01:55:47;3.22;;;1.55;;
44169;SDS011;29836;52.286;9.576;2023-07-16T01:58:13;3.70;;;1.77;;
44169;SDS011;29836;52.286;9.576;2023-07-16T02:00:38;3.78;;;1.60;;
44169;SDS011;29836;52.286;9.576;2023-07-16T02:03:04;4.03;;;1.63;;
44169;SDS011;29836;52.286;9.576;2023-07-16T02:05:30;3.40;;;1.73;;
44169;SDS011;29836;52.286;9.576;2023-07-16T02:07:55;4.22;;;1.70;;
44169;SDS011;29836;52.286;9.576;2023-07-16T02:10:21;3.58;;;1.55;;
44169;SDS011;29836;52.286;9.576;2023-07-16T02:12:46;3.70;;;1.70;;
44169;SDS011;29836;52.286;9.576;2023-07-16T02:15:12;2.38;;;1.58;;
44169;SDS011;29836;52.286;9.576;2023-07-16T02:17:37;5.13;;;1.75;;
44169;SDS011;29836;52.286;9.576;2023-07-16T02:20:03;2.33;;;1.30;;
44169;SDS011;29836;52.286;9.576;2023-07-16T02:22:33;3.50;;;1.40;;
44169;SDS011;29836;52.286;9.576;2023-07-16T02:25:00;2.67;;;1.35;;
44169;SDS011;29836;52.286;9.576;2023-07-16T02:27:26;3.67;;;1.48;;
44169;SDS011;29836;52.286;9.576;2023-07-16T02:29:52;4.47;;;1.58;;
44169;SDS011;29836;52.286;9.576;2023-07-16T02:32:17;3.65;;;1.50;;
44169;SDS011;29836;52.286;9.576;2023-07-16T02:34:43;3.50;;;1.40;;
44169;SDS011;29836;52.286;9.576;2023-07-16T02:37:08;3.75;;;1.55;;
44169;SDS011;29836;52.286;9.576;2023-07-16T02:39:34;2.40;;;1.40;;
44169;SDS011;29836;52.286;9.576;2023-07-16T02:41:59;2.78;;;1.40;;
44169;SDS011;29836;52.286;9.576;2023-07-16T02:44:25;3.70;;;1.48;;
44169;SDS011;29836;52.286;9.576;2023-07-16T02:46:50;2.33;;;1.40;;
44169;SDS011;29836;52.286;9.576;2023-07-16T02:49:16;3.25;;;1.40;;
44169;SDS011;29836;52.286;9.576;2023-07-16T02:51:45;4.07;;;1.35;;
44169;SDS011;29836;52.286;9.576;2023-07-16T02:54:11;3.05;;;1.52;;
44169;SDS011;29836;52.286;9.576;2023-07-16T02:56:36;6.35;;;1.88;;
44169;SDS011;29836;52.286;9.576;2023-07-16T02:59:02;3.58;;;1.70;;
44169;SDS011;29836;52.286;9.576;2023-07-16T03:01:27;3.97;;;1.77;;
44169;SDS011;29836;52.286;9.576;2023-07-16T03:03:53;3.63;;;1.75;;
44169;SDS011;29836;52.286;9.576;2023-07-16T03:06:18;2.67;;;1.60;;
44169;SDS011;29836;52.286;9.576;2023-07-16T03:08:44;3.08;;;1.83;;
44169;SDS011;29836;52.286;9.576;2023-07-16T03:11:10;3.67;;;1.50;;
44169;SDS011;29836;52.286;9.576;2023-07-16T03:13:36;3.65;;;1.45;;
44169;SDS011;29836;52.286;9.576;2023-07-16T03:16:02;2.85;;;1.63;;
44169;SDS011;29836;52.286;9.576;2023-07-16T03:18:30;2.85;;;1.60;;
44169;SDS011;29836;52.286;9.576;2023-07-16T03:20:56;3.38;;;1.85;;
44169;SDS011;29836;52.286;9.576;2023-07-16T03:23:23;2.83;;;1.60;;
44169;SDS011;29836;52.286;9.576;2023-07-16T03:25:48;4.78;;;1.85;;
44169;SDS011;29836;52.286;9.576;2023-07-16T03:28:14;3.20;;;1.88;;
44169;SDS011;29836;52.286;9.576;2023-07-16T03:30:40;3.28;;;1.70;;
44169;SDS011;29836;52.286;9.576;2023-07-16T03:33:09;3.53;;;2.00;;
44169;SDS011;29836;52.286;9.576;2023-07-16T03:35:35;3.95;;;2.00;;
44169;SDS011;29836;52.286;9.576;2023-07-16T03:38:00;4.63;;;1.80;;
44169;SDS011;29836;52.286;9.576;2023-07-16T03:40:26;3.20;;;1.77;;
44169;SDS011;29836;52.286;9.576;2023-07-16T03:42:52;4.50;;;1.70;;
44169;SDS011;29836;52.286;9.576;2023-07-16T03:45:18;2.88;;;1.60;;
44169;SDS011;29836;52.286;9.576;2023-07-16T03:47:44;4.72;;;1.70;;
44169;SDS011;29836;52.286;9.576;2023-07-16T03:50:10;5.32;;;1.58;;
44169;SDS011;29836;52.286;9.576;2023-07-16T03:52:35;4.47;;;1.85;;
44169;SDS011;29836;52.286;9.576;2023-07-16T03:55:01;5.35;;;1.60;;
44169;SDS011;29836;52.286;9.576;2023-07-16T03:57:27;3.30;;;1.67;;
44169;SDS011;29836;52.286;9.576;2023-07-16T03:59:54;8.07;;;1.98;;
44169;SDS011;29836;52.286;9.576;2023-07-16T04:02:19;2.90;;;1.80;;
44169;SDS011;29836;52.286;9.576;2023-07-16T04:04:45;3.55;;;2.00;;
44169;SDS011;29836;52.286;9.576;2023-07-16T04:07:11;3.63;;;1.80;;
44169;SDS011;29836;52.286;9.576;2023-07-16T04:09:37;3.63;;;1.67;;
44169;SDS011;29836;52.286;9.576;2023-07-16T04:12:03;2.88;;;1.58;;
44169;SDS011;29836;52.286;9.576;2023-07-16T04:14:30;4.72;;;1.70;;
44169;SDS011;29836;52.286;9.576;2023-07-16T04:16:56;5.88;;;2.00;;
44169;SDS011;29836;52.286;9.576;2023-07-16T04:19:21;4.18;;;1.92;;
44169;SDS011;29836;52.286;9.576;2023-07-16T04:21:47;5.68;;;1.85;;
44169;SDS011;29836;52.286;9.576;2023-07-16T04:24:12;3.70;;;2.10;;
44169;SDS011;29836;52.286;9.576;2023-07-16T04:26:38;3.70;;;1.63;;
44169;SDS011;29836;52.286;9.576;2023-07-16T04:29:03;4.40;;;1.80;;
44169;SDS011;29836;52.286;9.576;2023-07-16T04:31:29;3.75;;;1.58;;
44169;SDS011;29836;52.286;9.576;2023-07-16T04:33:55;3.50;;;1.60;;
44169;SDS011;29836;52.286;9.576;2023-07-16T04:36:20;3.22;;;1.80;;
44169;SDS011;29836;52.286;9.576;2023-07-16T04:38:46;4.90;;;1.73;;
44169;SDS011;29836;52.286;9.576;2023-07-16T04:41:11;3.80;;;2.10;;
44169;SDS011;29836;52.286;9.576;2023-07-16T04:43:37;4.10;;;1.80;;
44169;SDS011;29836;52.286;9.576;2023-07-16T04:46:03;4.40;;;1.77;;
44169;SDS011;29836;52.286;9.576;2023-07-16T04:48:29;4.15;;;1.60;;
44169;SDS011;29836;52.286;9.576;2023-07-16T04:50:55;3.80;;;1.75;;
44169;SDS011;29836;52.286;9.576;2023-07-16T04:53:21;3.33;;;1.92;;
44169;SDS011;29836;52.286;9.576;2023-07-16T04:55:47;5.05;;;1.60;;
44169;SDS011;29836;52.286;9.576;2023-07-16T04:58:15;3.50;;;1.67;;
44169;SDS011;29836;52.286;9.576;2023-07-16T05:00:52;3.33;;;1.80;;
44169;SDS011;29836;52.286;9.576;2023-07-16T05:03:18;3.63;;;1.63;;
44169;SDS011;29836;52.286;9.576;2023-07-16T05:05:43;2.45;;;1.45;;
44169;SDS011;29836;52.286;9.576;2023-07-16T05:08:09;3.20;;;1.50;;
44169;SDS011;29836;52.286;9.576;2023-07-16T05:10:34;3.75;;;1.60;;
44169;SDS011;29836;52.286;9.576;2023-07-16T05:13:00;4.20;;;1.70;;
44169;SDS011;29836;52.286;9.576;2023-07-16T05:15:27;3.45;;;1.85;;
44169;SDS011;29836;52.286;9.576;2023-07-16T05:17:52;3.60;;;1.67;;
44169;SDS011;29836;52.286;9.576;2023-07-16T05:20:18;4.45;;;1.60;;
44169;SDS011;29836;52.286;9.576;2023-07-16T05:22:43;4.32;;;1.63;;
44169;SDS011;29836;52.286;9.576;2023-07-16T05:25:09;5.32;;;1.70;;
44169;SDS011;29836;52.286;9.576;2023-07-16T05:27:34;3.83;;;1.67;;
44169;SDS011;29836;52.286;9.576;2023-07-16T05:30:00;6.03;;;1.63;;
44169;SDS011;29836;52.286;9.576;2023-07-16T05:32:26;3.85;;;1.73;;
44169;SDS011;29836;52.286;9.576;2023-07-16T05:34:52;3.78;;;1.60;;
44169;SDS011;29836;52.286;9.576;2023-07-16T05:37:17;2.78;;;1.70;;
44169;SDS011;29836;52.286;9.576;2023-07-16T05:39:43;3.72;;;1.52;;
44169;SDS011;29836;52.286;9.576;2023-07-16T05:42:08;3.58;;;1.63;;
44169;SDS011;29836;52.286;9.576;2023-07-16T05:44:34;3.70;;;1.63;;
44169;SDS011;29836;52.286;9.576;2023-07-16T05:47:00;4.70;;;1.92;;
44169;SDS011;29836;52.286;9.576;2023-07-16T05:49:26;3.88;;;1.75;;
44169;SDS011;29836;52.286;9.576;2023-07-16T05:51:51;8.50;;;2.00;;
44169;SDS011;29836;52.286;9.576;2023-07-16T05:54:17;5.07;;;1.70;;
44169;SDS011;29836;52.286;9.576;2023-07-16T05:56:43;5.35;;;1.98;;
44169;SDS011;29836;52.286;9.576;2023-07-16T05:59:08;3.08;;;1.70;;
44169;SDS011;29836;52.286;9.576;2023-07-16T06:01:34;5.25;;;1.90;;
44169;SDS011;29836;52.286;9.576;2023-07-16T06:04:00;3.28;;;1.75;;
44169;SDS011;29836;52.286;9.576;2023-07-16T06:06:27;3.45;;;1.70;;
44169;SDS011;29836;52.286;9.576;2023-07-16T06:08:53;4.25;;;1.70;;
44169;SDS011;29836;52.286;9.576;2023-07-16T06:11:19;3.95;;;1.63;;
44169;SDS011;29836;52.286;9.576;2023-07-16T06:13:44;4.50;;;2.08;;
44169;SDS011;29836;52.286;9.576;2023-07-16T06:16:10;3.40;;;1.70;;
44169;SDS011;29836;52.286;9.576;2023-07-16T06:18:36;5.07;;;1.88;;
44169;SDS011;29836;52.286;9.576;2023-07-16T06:21:01;4.82;;;2.00;;
44169;SDS011;29836;52.286;9.576;2023-07-16T06:23:27;4.30;;;1.65;;
44169;SDS011;29836;52.286;9.576;2023-07-16T06:25:55;4.50;;;1.85;;
44169;SDS011;29836;52.286;9.576;2023-07-16T06:28:21;4.93;;;1.98;;
44169;SDS011;29836;52.286;9.576;2023-07-16T06:30:47;4.20;;;1.80;;
44169;SDS011;29836;52.286;9.576;2023-07-16T06:33:14;6.13;;;1.90;;
44169;SDS011;29836;52.286;9.576;2023-07-16T06:35:40;7.65;;;1.83;;
44169;SDS011;29836;52.286;9.576;2023-07-16T06:38:10;7.57;;;1.90;;
44169;SDS011;29836;52.286;9.576;2023-07-16T06:40:35;5.32;;;2.08;;
44169;SDS011;29836;52.286;9.576;2023-07-16T06:43:01;5.57;;;2.10;;
44169;SDS011;29836;52.286;9.576;2023-07-16T06:45:26;4.10;;;1.83;;
44169;SDS011;29836;52.286;9.576;2023-07-16T06:47:52;3.50;;;1.92;;
44169;SDS011;29836;52.286;9.576;2023-07-16T06:50:17;3.83;;;2.10;;
44169;SDS011;29836;52.286;9.576;2023-07-16T06:52:43;3.42;;;1.70;;
44169;SDS011;29836;52.286;9.576;2023-07-16T06:55:08;3.55;;;1.92;;
44169;SDS011;29836;52.286;9.576;2023-07-16T06:57:34;4.30;;;1.92;;
44169;SDS011;29836;52.286;9.576;2023-07-16T07:00:00;4.53;;;1.77;;
44169;SDS011;29836;52.286;9.576;2023-07-16T07:02:25;4.63;;;1.98;;
44169;SDS011;29836;52.286;9.576;2023-07-16T07:04:51;5.28;;;2.00;;
44169;SDS011;29836;52.286;9.576;2023-07-16T07:07:16;6.05;;;1.90;;
44169;SDS011;29836;52.286;9.576;2023-07-16T07:09:42;10.57;;;2.20;;
44169;SDS011;29836;52.286;9.576;2023-07-16T07:12:07;4.63;;;1.98;;
44169;SDS011;29836;52.286;9.576;2023-07-16T07:14:33;5.05;;;2.05;;
44169;SDS011;29836;52.286;9.576;2023-07-16T07:16:59;4.53;;;1.95;;
44169;SDS011;29836;52.286;9.576;2023-07-16T07:19:25;3.50;;;2.00;;
44169;SDS011;29836;52.286;9.576;2023-07-16T07:21:50;8.50;;;2.20;;
44169;SDS011;29836;52.286;9.576;2023-07-16T07:24:16;5.30;;;2.38;;
44169;SDS011;29836;52.286;9.576;2023-07-16T07:26:41;5.65;;;2.15;;
44169;SDS011;29836;52.286;9.576;2023-07-16T07:29:07;4.88;;;2.03;;
44169;SDS011;29836;52.286;9.576;2023-07-16T07:31:33;5.03;;;1.98;;
44169;SDS011;29836;52.286;9.576;2023-07-16T07:33:58;4.38;;;2.60;;
44169;SDS011;29836;52.286;9.576;2023-07-16T07:36:24;9.57;;;2.72;;
44169;SDS011;29836;52.286;9.576;2023-07-16T07:38:50;5.30;;;2.40;;
44169;SDS011;29836;52.286;9.576;2023-07-16T07:41:15;5.00;;;2.15;;
44169;SDS011;29836;52.286;9.576;2023-07-16T07:43:41;5.80;;;2.28;;
44169;SDS011;29836;52.286;9.576;2023-07-16T07:46:07;5.82;;;2.70;;
44169;SDS011;29836;52.286;9.576;2023-07-16T07:48:33;6.22;;;2.42;;
44169;SDS011;29836;52.286;9.576;2023-07-16T07:50:59;6.00;;;2.45;;
44169;SDS011;29836;52.286;9.576;2023-07-16T07:53:24;8.20;;;2.42;;
44169;SDS011;29836;52.286;9.576;2023-07-16T07:55:50;5.40;;;2.33;;
44169;SDS011;29836;52.286;9.576;2023-07-16T07:58:15;5.47;;;2.33;;
44169;SDS011;29836;52.286;9.576;2023-07-16T08:00:41;5.93;;;2.20;;
44169;SDS011;29836;52.286;9.576;2023-07-16T08:03:06;4.35;;;2.20;;
44169;SDS011;29836;52.286;9.576;2023-07-16T08:05:32;6.10;;;2.17;;
44169;SDS011;29836;52.286;9.576;2023-07-16T08:07:59;5.00;;;2.53;;
44169;SDS011;29836;52.286;9.576;2023-07-16T08:10:24;4.32;;;2.25;;
44169;SDS011;29836;52.286;9.576;2023-07-16T08:12:50;3.80;;;2.22;;
44169;SDS011;29836;52.286;9.576;2023-07-16T08:15:17;8.48;;;2.45;;
44169;SDS011;29836;52.286;9.576;2023-07-16T08:17:43;6.43;;;2.20;;
44169;SDS011;29836;52.286;9.576;2023-07-16T08:20:10;5.13;;;2.20;;
44169;SDS011;29836;52.286;9.576;2023-07-16T08:22:37;5.63;;;2.28;;
44169;SDS011;29836;52.286;9.576;2023-07-16T08:25:03;12.50;;;2.80;;
44169;SDS011;29836;52.286;9.576;2023-07-16T08:27:30;3.95;;;2.10;;
44169;SDS011;29836;52.286;9.576;2023-07-16T08:29:55;5.22;;;2.20;;
44169;SDS011;29836;52.286;9.576;2023-07-16T08:32:21;5.55;;;2.55;;
44169;SDS011;29836;52.286;9.576;2023-07-16T08:34:47;6.10;;;2.53;;
44169;SDS011;29836;52.286;9.576;2023-07-16T08:37:13;5.25;;;2.25;;
44169;SDS011;29836;52.286;9.576;2023-07-16T08:39:39;4.18;;;2.15;;
44169;SDS011;29836;52.286;9.576;2023-07-16T08:42:04;5.57;;;2.13;;
44169;SDS011;29836;52.286;9.576;2023-07-16T08:44:31;5.55;;;2.13;;
44169;SDS011;29836;52.286;9.576;2023-07-16T08:46:56;4.53;;;2.20;;
44169;SDS011;29836;52.286;9.576;2023-07-16T08:49:22;7.88;;;2.15;;
44169;SDS011;29836;52.286;9.576;2023-07-16T08:51:49;7.63;;;2.17;;
44169;SDS011;29836;52.286;9.576;2023-07-16T08:54:15;4.70;;;1.80;;
44169;SDS011;29836;52.286;9.576;2023-07-16T08:56:43;5.38;;;2.20;;
44169;SDS011;29836;52.286;9.576;2023-07-16T08:59:09;5.45;;;2.10;;
44169;SDS011;29836;52.286;9.576;2023-07-16T09:01:36;4.80;;;2.20;;
44169;SDS011;29836;52.286;9.576;2023-07-16T09:04:02;4.50;;;2.17;;
44169;SDS011;29836;52.286;9.576;2023-07-16T09:06:28;7.05;;;2.10;;
44169;SDS011;29836;52.286;9.576;2023-07-16T09:08:53;4.95;;;1.95;;
44169;SDS011;29836;52.286;9.576;2023-07-16T09:11:20;4.63;;;1.95;;
44169;SDS011;29836;52.286;9.576;2023-07-16T09:13:47;6.22;;;1.90;;
44169;SDS011;29836;52.286;9.576;2023-07-16T09:16:13;5.25;;;2.10;;
44169;SDS011;29836;52.286;9.576;2023-07-16T09:18:41;5.55;;;1.90;;
44169;SDS011;29836;52.286;9.576;2023-07-16T09:21:07;5.45;;;2.20;;
44169;SDS011;29836;52.286;9.576;2023-07-16T09:23:33;4.78;;;2.10;;
44169;SDS011;29836;52.286;9.576;2023-07-16T09:25:59;3.72;;;2.20;;
44169;SDS011;29836;52.286;9.576;2023-07-16T09:28:25;4.35;;;2.17;;
44169;SDS011;29836;52.286;9.576;2023-07-16T09:30:51;4.35;;;2.03;;
44169;SDS011;29836;52.286;9.576;2023-07-16T09:33:18;3.58;;;1.70;;
44169;SDS011;29836;52.286;9.576;2023-07-16T09:35:47;3.25;;;1.80;;
44169;SDS011;29836;52.286;9.576;2023-07-16T09:38:16;4.05;;;2.03;;
44169;SDS011;29836;52.286;9.576;2023-07-16T09:40:43;7.85;;;1.98;;
44169;SDS011;29836;52.286;9.576;2023-07-16T09:43:09;2.75;;;1.88;;
44169;SDS011;29836;52.286;9.576;2023-07-16T09:45:38;5.30;;;2.00;;
44169;SDS011;29836;52.286;9.576;2023-07-16T09:48:04;4.28;;;2.05;;
44169;SDS011;29836;52.286;9.576;2023-07-16T09:50:31;5.82;;;2.00;;
44169;SDS011;29836;52.286;9.576;2023-07-16T09:52:58;5.97;;;2.20;;
44169;SDS011;29836;52.286;9.576;2023-07-16T09:55:25;3.38;;;1.92;;
44169;SDS011;29836;52.286;9.576;2023-07-16T09:57:53;3.35;;;1.88;;
44169;SDS011;29836;52.286;9.576;2023-07-16T10:00:22;10.75;;;2.22;;
44169;SDS011;29836;52.286;9.576;2023-07-16T10:02:49;3.67;;;1.85;;
44169;SDS011;29836;52.286;9.576;2023-07-16T10:05:23;8.35;;;2.35;;
44169;SDS011;29836;52.286;9.576;2023-07-16T10:07:51;4.32;;;1.90;;
44169;SDS011;29836;52.286;9.576;2023-07-16T10:10:18;5.80;;;2.40;;
44169;SDS011;29836;52.286;9.576;2023-07-16T10:12:54;5.22;;;2.13;;
44169;SDS011;29836;52.286;9.576;2023-07-16T10:15:26;7.10;;;2.25;;
44169;SDS011;29836;52.286;9.576;2023-07-16T10:17:55;4.18;;;1.95;;
44169;SDS011;29836;52.286;9.576;2023-07-16T10:20:28;5.25;;;1.95;;
44169;SDS011;29836;52.286;9.576;2023-07-16T10:22:58;7.47;;;2.20;;
44169;SDS011;29836;52.286;9.576;2023-07-16T10:25:35;4.53;;;2.10;;
44169;SDS011;29836;52.286;9.576;2023-07-16T10:28:01;6.30;;;2.20;;
44169;SDS011;29836;52.286;9.576;2023-07-16T10:30:26;4.80;;;2.30;;
44169;SDS011;29836;52.286;9.576;2023-07-16T10:32:52;4.68;;;2.33;;
44169;SDS011;29836;52.286;9.576;2023-07-16T10:35:18;5.47;;;2.30;;
44169;SDS011;29836;52.286;9.576;2023-07-16T10:37:44;4.82;;;2.30;;
44169;SDS011;29836;52.286;9.576;2023-07-16T10:40:13;4.90;;;2.35;;
44169;SDS011;29836;52.286;9.576;2023-07-16T10:42:40;4.57;;;2.13;;
44169;SDS011;29836;52.286;9.576;2023-07-16T10:45:11;6.40;;;2.45;;
44169;SDS011;29836;52.286;9.576;2023-07-16T10:47:37;3.50;;;2.28;;
44169;SDS011;29836;52.286;9.576;2023-07-16T10:50:06;3.38;;;2.22;;
44169;SDS011;29836;52.286;9.576;2023-07-16T10:52:33;4.45;;;2.17;;
44169;SDS011;29836;52.286;9.576;2023-07-16T10:54:59;4.57;;;2.47;;
44169;SDS011;29836;52.286;9.576;2023-07-16T10:57:25;8.57;;;2.45;;
44169;SDS011;29836;52.286;9.576;2023-07-16T10:59:51;4.13;;;2.30;;
44169;SDS011;29836;52.286;9.576;2023-07-16T11:04:50;4.70;;;2.28;;
44169;SDS011;29836;52.286;9.576;2023-07-16T11:07:19;5.30;;;2.33;;
44169;SDS011;29836;52.286;9.576;2023-07-16T11:09:49;4.85;;;2.30;;
44169;SDS011;29836;52.286;9.576;2023-07-16T11:12:17;4.38;;;2.45;;
44169;SDS011;29836;52.286;9.576;2023-07-16T11:14:47;4.25;;;2.13;;
44169;SDS011;29836;52.286;9.576;2023-07-16T11:17:16;4.00;;;2.30;;
44169;SDS011;29836;52.286;9.576;2023-07-16T11:19:45;7.45;;;2.45;;
44169;SDS011;29836;52.286;9.576;2023-07-16T11:22:13;3.63;;;2.05;;
44169;SDS011;29836;52.286;9.576;2023-07-16T11:27:13;5.72;;;2.30;;
44169;SDS011;29836;52.286;9.576;2023-07-16T11:32:14;3.75;;;1.90;;
44169;SDS011;29836;52.286;9.576;2023-07-16T11:35:00;5.07;;;2.47;;
44169;SDS011;29836;52.286;9.576;2023-07-16T11:37:28;9.27;;;2.78;;
44169;SDS011;29836;52.286;9.576;2023-07-16T11:44:54;3.45;;;2.22;;
44169;SDS011;29836;52.286;9.576;2023-07-16T11:47:21;4.60;;;2.22;;
44169;SDS011;29836;52.286;9.576;2023-07-16T11:49:47;5.20;;;2.30;;
44169;SDS011;29836;52.286;9.576;2023-07-16T11:52:14;5.05;;;2.50;;
44169;SDS011;29836;52.286;9.576;2023-07-16T11:54:40;3.47;;;2.25;;
44169;SDS011;29836;52.286;9.576;2023-07-16T11:57:05;6.57;;;2.25;;
44169;SDS011;29836;52.286;9.576;2023-07-16T11:59:31;4.25;;;2.35;;
44169;SDS011;29836;52.286;9.576;2023-07-16T12:01:57;4.68;;;2.60;;
44169;SDS011;29836;52.286;9.576;2023-07-16T12:04:22;3.85;;;2.05;;
44169;SDS011;29836;52.286;9.576;2023-07-16T12:06:48;5.95;;;2.60;;
44169;SDS011;29836;52.286;9.576;2023-07-16T12:09:13;5.78;;;2.50;;
44169;SDS011;29836;52.286;9.576;2023-07-16T12:11:39;3.83;;;2.15;;
44169;SDS011;29836;52.286;9.576;2023-07-16T12:14:05;5.63;;;2.10;;
44169;SDS011;29836;52.286;9.576;2023-07-16T12:16:31;4.43;;;2.40;;
44169;SDS011;29836;52.286;9.576;2023-07-16T12:18:57;4.10;;;2.13;;
44169;SDS011;29836;52.286;9.576;2023-07-16T12:21:22;6.05;;;2.22;;
44169;SDS011;29836;52.286;9.576;2023-07-16T12:23:48;5.38;;;1.98;;
44169;SDS011;29836;52.286;9.576;2023-07-16T12:26:13;5.50;;;2.33;;
44169;SDS011;29836;52.286;9.576;2023-07-16T12:28:39;3.38;;;2.03;;
44169;SDS011;29836;52.286;9.576;2023-07-16T12:31:05;3.25;;;2.03;;
44169;SDS011;29836;52.286;9.576;2023-07-16T12:33:30;5.32;;;2.05;;
44169;SDS011;29836;52.286;9.576;2023-07-16T12:35:56;3.10;;;2.00;;
44169;SDS011;29836;52.286;9.576;2023-07-16T12:38:21;4.97;;;2.22;;
44169;SDS011;29836;52.286;9.576;2023-07-16T12:40:47;4.43;;;2.13;;
44169;SDS011;29836;52.286;9.576;2023-07-16T12:43:13;5.45;;;2.28;;
44169;SDS011;29836;52.286;9.576;2023-07-16T12:45:39;3.50;;;2.33;;
44169;SDS011;29836;52.286;9.576;2023-07-16T12:48:04;4.07;;;2.15;;
44169;SDS011;29836;52.286;9.576;2023-07-16T12:50:30;3.85;;;2.10;;
44169;SDS011;29836;52.286;9.576;2023-07-16T12:52:56;3.55;;;2.00;;
44169;SDS011;29836;52.286;9.576;2023-07-16T12:55:21;3.63;;;2.13;;
44169;SDS011;29836;52.286;9.576;2023-07-16T12:57:48;5.10;;;2.25;;
44169;SDS011;29836;52.286;9.576;2023-07-16T13:00:13;3.67;;;2.03;;
44169;SDS011;29836;52.286;9.576;2023-07-16T13:02:39;4.78;;;2.20;;
44169;SDS011;29836;52.286;9.576;2023-07-16T13:05:04;3.67;;;2.22;;
44169;SDS011;29836;52.286;9.576;2023-07-16T13:07:30;3.97;;;1.80;;
44169;SDS011;29836;52.286;9.576;2023-07-16T13:09:59;3.17;;;2.10;;
44169;SDS011;29836;52.286;9.576;2023-07-16T13:12:24;4.68;;;2.40;;
44169;SDS011;29836;52.286;9.576;2023-07-16T13:14:50;4.50;;;2.38;;
44169;SDS011;29836;52.286;9.576;2023-07-16T13:17:16;3.53;;;1.95;;
44169;SDS011;29836;52.286;9.576;2023-07-16T13:19:44;4.45;;;2.30;;
44169;SDS011;29836;52.286;9.576;2023-07-16T13:22:09;5.30;;;2.28;;
44169;SDS011;29836;52.286;9.576;2023-07-16T13:24:35;4.20;;;2.30;;
44169;SDS011;29836;52.286;9.576;2023-07-16T13:27:00;3.17;;;1.98;;
44169;SDS011;29836;52.286;9.576;2023-07-16T13:29:26;7.55;;;2.55;;
44169;SDS011;29836;52.286;9.576;2023-07-16T13:31:52;5.50;;;2.30;;
44169;SDS011;29836;52.286;9.576;2023-07-16T13:34:18;4.85;;;2.40;;
44169;SDS011;29836;52.286;9.576;2023-07-16T13:36:43;4.13;;;2.30;;
44169;SDS011;29836;52.286;9.576;2023-07-16T13:39:09;3.88;;;2.20;;
44169;SDS011;29836;52.286;9.576;2023-07-16T13:41:37;4.95;;;2.40;;
44169;SDS011;29836;52.286;9.576;2023-07-16T13:44:02;4.10;;;2.38;;
44169;SDS011;29836;52.286;9.576;2023-07-16T13:46:28;6.60;;;2.50;;
44169;SDS011;29836;52.286;9.576;2023-07-16T13:48:54;4.20;;;2.28;;
44169;SDS011;29836;52.286;9.576;2023-07-16T13:51:19;3.70;;;2.20;;
44169;SDS011;29836;52.286;9.576;2023-07-16T13:53:45;4.90;;;2.15;;
44169;SDS011;29836;52.286;9.576;2023-07-16T13:56:10;3.42;;;2.33;;
44169;SDS011;29836;52.286;9.576;2023-07-16T13:58:36;5.00;;;2.17;;
44169;SDS011;29836;52.286;9.576;2023-07-16T14:01:02;6.50;;;2.30;;
44169;SDS011;29836;52.286;9.576;2023-07-16T14:03:28;6.93;;;2.30;;
44169;SDS011;29836;52.286;9.576;2023-07-16T14:05:53;4.82;;;2.03;;
44169;SDS011;29836;52.286;9.576;2023-07-16T14:08:19;5.20;;;2.40;;
44169;SDS011;29836;52.286;9.576;2023-07-16T14:10:44;4.38;;;2.50;;
44169;SDS011;29836;52.286;9.576;2023-07-16T14:13:10;4.30;;;2.30;;
44169;SDS011;29836;52.286;9.576;2023-07-16T14:15:37;4.78;;;2.35;;
44169;SDS011;29836;52.286;9.576;2023-07-16T14:18:03;5.68;;;2.47;;
44169;SDS011;29836;52.286;9.576;2023-07-16T14:20:29;3.70;;;2.50;;
44169;SDS011;29836;52.286;9.576;2023-07-16T14:22:54;3.90;;;2.40;;
44169;SDS011;29836;52.286;9.576;2023-07-16T14:25:20;3.70;;;2.28;;
44169;SDS011;29836;52.286;9.576;2023-07-16T14:27:45;5.55;;;2.53;;
44169;SDS011;29836;52.286;9.576;2023-07-16T14:30:12;4.35;;;2.47;;
44169;SDS011;29836;52.286;9.576;2023-07-16T14:32:38;4.15;;;2.60;;
44169;SDS011;29836;52.286;9.576;2023-07-16T14:35:04;4.53;;;2.53;;
44169;SDS011;29836;52.286;9.576;2023-07-16T14:37:29;6.50;;;2.67;;
44169;SDS011;29836;52.286;9.576;2023-07-16T14:39:55;6.10;;;2.92;;
44169;SDS011;29836;52.286;9.576;2023-07-16T14:42:21;4.65;;;2.60;;
44169;SDS011;29836;52.286;9.576;2023-07-16T14:44:46;4.57;;;2.72;;
44169;SDS011;29836;52.286;9.576;2023-07-16T14:47:12;4.78;;;2.78;;
44169;SDS011;29836;52.286;9.576;2023-07-16T14:49:38;4.85;;;2.83;;
44169;SDS011;29836;52.286;9.576;2023-07-16T14:52:03;3.88;;;2.50;;
44169;SDS011;29836;52.286;9.576;2023-07-16T14:54:29;5.05;;;2.95;;
44169;SDS011;29836;52.286;9.576;2023-07-16T14:56:55;4.22;;;2.30;;
44169;SDS011;29836;52.286;9.576;2023-07-16T14:59:20;6.15;;;2.95;;
44169;SDS011;29836;52.286;9.576;2023-07-16T15:01:46;4.78;;;2.70;;
44169;SDS011;29836;52.286;9.576;2023-07-16T15:04:12;5.20;;;2.53;;